Time;durP1;ratioP1;P1;durP2;ratioP2;P2;SDS_P1;SDS_P2;PMS_P1;PMS_P2;Temp;Humidity;BMP_temperature;BMP_pressure;BME280_temperature;BME280_humidity;BME280_pressure;Samples;Min_cycle;Max_cycle;Signal;HPM_P1;HPM_P2
2021/03/30 00:00:07;;;;;;;35.42;21.17;;;9.10;72.50;;;;;;5043931;28;20037;-80
2021/03/30 00:02:33;;;;;;;32.15;21.40;;;9.10;72.70;;;;;;5033357;28;20029;-75
2021/03/30 00:04:59;;;;;;;34.20;22.13;;;9.10;72.80;;;;;;5020791;28;20057;-76
2021/03/30 00:07:24;;;;;;;35.60;22.92;;;9.10;72.70;;;;;;5028564;28;20094;-74
2021/03/30 00:09:50;;;;;;;32.95;21.60;;;9.10;72.80;;;;;;5027352;28;20124;-76
2021/03/30 00:12:16;;;;;;;30.95;20.15;;;9.10;72.90;;;;;;5028504;28;20657;-73
2021/03/30 00:14:42;;;;;;;35.03;22.38;;;9.00;73.00;;;;;;5025204;28;20112;-73
2021/03/30 00:17:08;;;;;;;38.75;23.63;;;9.00;73.00;;;;;;5024651;28;20112;-74
2021/03/30 00:19:34;;;;;;;36.00;23.33;;;8.90;73.30;;;;;;5027590;28;20098;-74
2021/03/30 00:21:59;;;;;;;34.15;22.77;;;8.90;73.60;;;;;;5032141;28;20051;-74
2021/03/30 00:24:25;;;;;;;38.08;22.30;;;8.90;73.50;;;;;;5026468;28;20037;-79
2021/03/30 00:26:51;;;;;;;38.30;22.67;;;8.80;73.50;;;;;;5026834;28;20069;-76
2021/03/30 00:29:16;;;;;;;34.42;23.15;;;8.80;73.60;;;;;;5022502;28;20037;-79
2021/03/30 00:31:42;;;;;;;35.45;22.40;;;8.70;73.80;;;;;;5023867;28;20037;-77
2021/03/30 00:34:08;;;;;;;36.03;23.80;;;8.60;74.00;;;;;;5028755;28;20107;-74
2021/03/30 00:36:33;;;;;;;33.67;22.80;;;8.60;74.00;;;;;;5025735;28;20049;-75
2021/03/30 00:38:59;;;;;;;43.78;25.30;;;8.60;74.10;;;;;;5034338;28;20387;-74
2021/03/30 00:41:25;;;;;;;39.63;23.98;;;8.60;74.30;;;;;;5029574;28;20119;-74
2021/03/30 00:43:50;;;;;;;39.63;24.52;;;8.60;74.50;;;;;;5026056;28;21252;-79
2021/03/30 00:46:17;;;;;;;39.80;23.67;;;8.60;74.60;;;;;;5025535;28;20029;-74
2021/03/30 00:48:49;;;;;;;38.97;24.40;;;8.50;74.50;;;;;;5029030;28;20029;-74
2021/03/30 00:51:18;;;;;;;36.80;23.23;;;8.50;74.30;;;;;;5021424;28;20380;-74
2021/03/30 00:53:45;;;;;;;37.30;24.13;;;8.40;74.40;;;;;;5030618;28;20029;-74
2021/03/30 00:56:11;;;;;;;36.05;23.42;;;8.40;74.40;;;;;;5029279;28;20120;-76
2021/03/30 00:58:36;;;;;;;40.78;24.98;;;8.40;74.60;;;;;;5026400;28;20037;-77
2021/03/30 01:01:02;;;;;;;38.30;24.20;;;8.30;74.60;;;;;;5021736;28;20073;-73
2021/03/30 01:03:28;;;;;;;39.47;24.17;;;8.20;74.90;;;;;;5023901;28;20032;-75
2021/03/30 01:05:54;;;;;;;38.75;23.92;;;8.10;75.10;;;;;;5029663;28;20217;-74
2021/03/30 01:08:58;;;;;;;38.75;22.85;;;8.10;75.10;;;;;;5024559;28;20045;-79
2021/03/30 01:11:58;;;;;;;35.83;22.75;;;8.20;75.10;;;;;;4998087;28;20095;-79
2021/03/30 01:14:45;;;;;;;38.13;24.13;;;8.10;75.10;;;;;;4994998;28;20107;-74
2021/03/30 01:17:35;;;;;;;40.22;24.88;;;8.10;75.50;;;;;;5023218;28;20030;-75
2021/03/30 01:20:29;;;;;;;40.13;23.23;;;8.10;75.60;;;;;;5028952;28;20087;-74
2021/03/30 01:23:31;;;;;;;39.08;23.38;;;8.10;75.60;;;;;;5032853;28;20041;-75
2021/03/30 01:26:26;;;;;;;38.97;23.70;;;8.10;75.50;;;;;;5029727;28;20076;-74
2021/03/30 01:29:11;;;;;;;40.35;23.10;;;8.00;75.50;;;;;;5010796;28;21155;-77
2021/03/30 01:31:38;;;;;;;;;;;8.00;75.50;;;;;;5027304;28;20503;-73
2021/03/30 01:34:05;;;;;;;42.38;24.45;;;8.00;75.60;;;;;;5017210;28;19971;-76
2021/03/30 01:36:33;;;;;;;40.63;24.00;;;8.00;75.80;;;;;;5019640;28;20277;-83
2021/03/30 01:39:00;;;;;;;41.38;23.50;;;7.90;75.80;;;;;;5009262;28;20524;-77
2021/03/30 01:41:26;;;;;;;36.40;22.38;;;7.90;75.80;;;;;;5005278;28;20116;-74
2021/03/30 01:43:54;;;;;;;39.13;23.00;;;7.80;75.90;;;;;;5006904;28;20068;-73
2021/03/30 01:46:20;;;;;;;37.78;22.73;;;7.80;76.00;;;;;;5005007;28;20034;-74
2021/03/30 01:48:46;;;;;;;40.35;24.83;;;7.80;76.00;;;;;;5008404;28;20046;-74
2021/03/30 01:51:13;;;;;;;41.05;24.30;;;7.80;75.80;;;;;;5005009;28;20469;-78
2021/03/30 01:53:41;;;;;;;38.08;22.77;;;7.70;76.10;;;;;;5009647;28;20037;-76
2021/03/30 01:56:09;;;;;;;40.15;23.65;;;7.70;76.20;;;;;;5010651;28;20122;-74
2021/03/30 01:58:37;;;;;;;37.20;24.05;;;7.60;76.20;;;;;;5007045;28;20038;-73
2021/03/30 02:01:03;;;;;;;42.45;23.58;;;7.60;76.30;;;;;;5011798;28;20392;-77
2021/03/30 02:03:29;;;;;;;42.15;25.02;;;7.60;76.80;;;;;;5011705;28;20041;-74
2021/03/30 02:05:57;;;;;;;39.95;24.45;;;7.50;76.60;;;;;;5020799;28;20042;-79
2021/03/30 02:08:26;;;;;;;43.72;24.08;;;7.50;76.70;;;;;;5028863;28;20052;-81
2021/03/30 02:10:55;;;;;;;40.75;24.88;;;7.50;76.50;;;;;;5022921;28;20378;-79
2021/03/30 02:13:28;;;;;;;40.42;23.08;;;7.40;76.40;;;;;;5013625;28;20101;-73
2021/03/30 02:16:19;;;;;;;38.92;23.60;;;7.40;76.60;;;;;;5010792;28;20069;-73
2021/03/30 02:18:49;;;;;;;39.08;23.40;;;7.40;76.70;;;;;;5009296;28;20034;-81
2021/03/30 02:21:25;;;;;;;37.10;22.88;;;7.30;76.70;;;;;;5018652;28;20033;-78
2021/03/30 02:23:51;;;;;;;41.58;24.17;;;7.30;77.00;;;;;;5027135;28;20645;-73
2021/03/30 02:26:17;;;;;;;37.22;23.10;;;7.20;77.00;;;;;;5023930;28;20026;-81
2021/03/30 02:28:46;;;;;;;38.83;22.58;;;7.20;76.70;;;;;;5014682;28;20123;-74
2021/03/30 02:31:16;;;;;;;39.97;24.48;;;7.10;77.00;;;;;;5027965;28;20039;-73
2021/03/30 02:33:48;;;;;;;39.03;24.02;;;7.10;77.10;;;;;;5026587;28;20068;-74
2021/03/30 02:36:17;;;;;;;39.85;24.95;;;7.10;77.20;;;;;;5027361;28;20504;-80
2021/03/30 02:38:43;;;;;;;39.17;24.38;;;7.10;77.30;;;;;;5026398;28;20037;-73
2021/03/30 02:41:09;;;;;;;37.75;22.90;;;7.00;77.30;;;;;;5025364;28;20021;-77
2021/03/30 02:43:36;;;;;;;37.17;23.02;;;7.00;77.40;;;;;;5029044;28;20091;-74
2021/03/30 02:46:03;;;;;;;38.53;23.45;;;7.00;77.10;;;;;;5028210;28;20037;-77
2021/03/30 02:48:31;;;;;;;36.03;23.05;;;6.90;77.00;;;;;;5026795;28;20044;-75
2021/03/30 02:50:57;;;;;;;34.67;22.05;;;7.00;77.20;;;;;;5026038;28;20068;-81
2021/03/30 02:53:23;;;;;;;39.67;24.55;;;6.90;77.10;;;;;;5024683;28;20033;-73
2021/03/30 02:55:49;;;;;;;39.03;23.35;;;6.90;77.40;;;;;;5028124;28;20056;-77
2021/03/30 02:58:15;;;;;;;41.25;25.38;;;6.90;77.60;;;;;;5025685;28;20099;-73
2021/03/30 03:00:41;;;;;;;44.85;26.08;;;6.90;78.10;;;;;;5030168;28;20037;-73
2021/03/30 03:03:12;;;;;;;46.53;26.95;;;7.00;78.30;;;;;;5029284;28;20052;-76
2021/03/30 03:05:39;;;;;;;47.40;27.33;;;7.00;78.70;;;;;;5024899;28;20096;-73
2021/03/30 03:08:06;;;;;;;42.72;26.13;;;7.00;79.10;;;;;;5024292;28;20041;-73
2021/03/30 03:10:34;;;;;;;44.83;27.50;;;7.00;79.10;;;;;;5025264;28;20120;-78
2021/03/30 03:13:01;;;;;;;45.58;26.55;;;6.90;79.40;;;;;;5028631;28;20041;-73
2021/03/30 03:15:28;;;;;;;43.00;25.90;;;6.90;79.60;;;;;;5023978;28;20052;-73
2021/03/30 03:17:55;;;;;;;40.50;25.75;;;6.90;79.50;;;;;;5027548;28;20033;-77
2021/03/30 03:20:24;;;;;;;42.90;25.30;;;6.80;79.20;;;;;;5026650;28;20037;-76
2021/03/30 03:22:50;;;;;;;42.78;24.95;;;6.70;79.10;;;;;;5023347;28;20137;-73
2021/03/30 03:25:16;;;;;;;42.28;24.23;;;6.70;79.20;;;;;;5024387;28;20025;-73
2021/03/30 03:27:42;;;;;;;40.20;24.30;;;6.70;79.30;;;;;;5030474;28;20060;-74
2021/03/30 03:30:10;;;;;;;42.70;25.02;;;6.60;79.20;;;;;;5023823;28;21692;-73
2021/03/30 03:32:36;;;;;;;39.38;24.25;;;6.60;79.10;;;;;;5028620;28;20476;-74
2021/03/30 03:35:03;;;;;;;39.92;24.80;;;6.60;78.90;;;;;;5026360;28;20044;-73
2021/03/30 03:37:30;;;;;;;40.72;24.65;;;6.60;78.70;;;;;;5025378;28;20033;-73
2021/03/30 03:39:56;;;;;;;41.47;25.25;;;6.50;78.80;;;;;;5025919;28;20029;-79
2021/03/30 03:42:22;;;;;;;43.45;25.95;;;6.40;78.90;;;;;;5027826;28;20495;-74
2021/03/30 03:44:47;;;;;;;39.28;23.88;;;6.40;79.20;;;;;;5029427;28;20034;-73
2021/03/30 03:47:13;;;;;;;40.72;24.85;;;6.40;79.30;;;;;;5023009;28;20058;-73
2021/03/30 03:49:39;;;;;;;41.45;26.05;;;6.30;79.40;;;;;;5030303;28;20063;-80
2021/03/30 03:52:12;;;;;;;40.30;24.67;;;6.40;79.50;;;;;;5031331;28;20425;-74
2021/03/30 03:54:40;;;;;;;38.45;24.90;;;6.30;79.40;;;;;;5030245;28;20041;-73
2021/03/30 03:57:22;;;;;;;42.30;25.50;;;6.30;79.40;;;;;;5025905;28;20563;-76
2021/03/30 03:59:50;;;;;;;39.97;25.20;;;6.20;79.50;;;;;;5024967;28;20084;-75
2021/03/30 04:02:22;;;;;;;39.28;23.75;;;6.20;79.40;;;;;;5027477;28;20083;-83
2021/03/30 04:04:50;;;;;;;44.03;25.25;;;6.20;79.30;;;;;;5036185;28;20059;-73
2021/03/30 04:07:22;;;;;;;43.38;24.67;;;6.30;79.20;;;;;;5023743;28;20358;-78
2021/03/30 04:09:51;;;;;;;41.33;24.65;;;6.20;79.20;;;;;;5034995;28;20064;-74
2021/03/30 04:12:20;;;;;;;43.03;24.98;;;6.20;79.00;;;;;;5022660;28;20034;-79
2021/03/30 04:14:46;;;;;;;43.42;24.38;;;6.10;79.00;;;;;;5027492;28;20056;-76
2021/03/30 04:17:17;;;;;;;40.35;22.70;;;6.10;79.30;;;;;;5022248;28;20040;-74
2021/03/30 04:19:44;;;;;;;41.58;25.15;;;6.10;79.40;;;;;;5027134;28;20038;-75
2021/03/30 04:22:10;;;;;;;39.35;24.00;;;6.10;79.20;;;;;;5019959;28;20457;-73
2021/03/30 04:24:35;;;;;;;46.13;25.60;;;6.10;79.20;;;;;;5026235;28;20037;-75
2021/03/30 04:27:01;;;;;;;41.45;24.92;;;6.10;79.50;;;;;;5023155;28;20041;-73
2021/03/30 04:29:27;;;;;;;43.20;24.55;;;6.10;79.80;;;;;;5014788;28;20030;-78
2021/03/30 04:31:53;;;;;;;41.25;24.90;;;6.00;80.00;;;;;;5001939;28;20389;-76
2021/03/30 04:34:18;;;;;;;42.45;26.45;;;6.00;80.10;;;;;;5008335;28;20040;-73
2021/03/30 04:36:44;;;;;;;43.40;25.15;;;6.00;80.20;;;;;;5005937;28;20049;-74
2021/03/30 04:39:10;;;;;;;41.67;24.17;;;6.00;79.90;;;;;;5017736;28;20033;-74
2021/03/30 04:41:35;;;;;;;37.63;21.35;;;6.00;79.80;;;;;;5025901;28;20049;-75
2021/03/30 04:44:01;;;;;;;41.15;23.83;;;6.00;79.70;;;;;;5017374;28;20038;-73
2021/03/30 04:46:27;;;;;;;42.08;24.30;;;6.00;79.80;;;;;;5021093;28;20040;-73
2021/03/30 04:48:52;;;;;;;39.50;23.25;;;6.10;79.80;;;;;;5033359;28;20115;-76
2021/03/30 04:51:18;;;;;;;40.72;25.33;;;6.00;79.60;;;;;;5020946;28;20055;-73
2021/03/30 04:53:43;;;;;;;42.20;24.25;;;6.00;79.20;;;;;;5019651;28;20072;-77
2021/03/30 04:56:09;;;;;;;42.78;24.33;;;6.00;79.30;;;;;;5020683;28;20038;-75
2021/03/30 04:58:35;;;;;;;40.22;24.83;;;5.90;79.20;;;;;;5019593;28;20116;-77
2021/03/30 05:01:01;;;;;;;46.63;26.05;;;5.90;79.00;;;;;;5017199;28;20036;-75
2021/03/30 05:03:26;;;;;;;40.70;25.13;;;5.80;78.90;;;;;;5027730;28;20033;-75
2021/03/30 05:05:52;;;;;;;42.03;25.77;;;5.80;79.50;;;;;;5025989;28;20408;-74
2021/03/30 05:08:18;;;;;;;43.10;25.95;;;5.70;79.90;;;;;;5024396;28;20046;-75
2021/03/30 05:10:43;;;;;;;40.33;24.45;;;5.70;80.10;;;;;;5026788;28;20037;-75
2021/03/30 05:13:09;;;;;;;41.53;25.17;;;5.80;80.20;;;;;;5026644;28;20111;-74
2021/03/30 05:15:35;;;;;;;43.25;26.75;;;5.80;80.10;;;;;;5028553;28;20396;-74
2021/03/30 05:18:00;;;;;;;42.88;25.85;;;5.70;80.30;;;;;;5024333;28;20029;-75
2021/03/30 05:20:26;;;;;;;42.42;24.77;;;5.80;80.00;;;;;;5030774;28;20060;-73
2021/03/30 05:22:52;;;;;;;46.25;25.77;;;5.70;80.00;;;;;;5026018;28;20038;-81
2021/03/30 05:25:17;;;;;;;39.53;23.80;;;5.70;79.90;;;;;;5030314;28;20040;-76
2021/03/30 05:27:43;;;;;;;43.00;24.55;;;5.70;79.90;;;;;;5027944;28;20547;-76
2021/03/30 05:30:11;;;;;;;40.55;24.40;;;5.80;80.10;;;;;;5028748;28;20151;-74
2021/03/30 05:32:37;;;;;;;41.10;24.13;;;5.80;80.00;;;;;;5025557;28;20038;-74
2021/03/30 05:35:09;;;;;;;41.67;23.85;;;5.70;79.70;;;;;;5030324;28;20083;-75
2021/03/30 05:37:35;;;;;;;44.15;25.50;;;5.70;79.70;;;;;;5024628;28;20056;-76
2021/03/30 05:40:00;;;;;;;41.13;24.83;;;5.80;79.80;;;;;;5019575;28;20483;-75
2021/03/30 05:42:26;;;;;;;42.38;24.42;;;5.80;79.80;;;;;;5031330;28;20116;-74
2021/03/30 05:44:52;;;;;;;42.28;26.67;;;5.80;79.40;;;;;;5026724;28;20080;-74
2021/03/30 05:47:21;;;;;;;41.17;25.48;;;5.80;79.50;;;;;;5023582;28;20040;-80
2021/03/30 05:49:49;;;;;;;39.22;25.80;;;5.90;79.60;;;;;;5022290;28;20472;-73
2021/03/30 05:52:30;;;;;;;41.28;25.67;;;5.90;79.50;;;;;;5029071;28;20103;-74
2021/03/30 05:54:57;;;;;;;46.13;25.73;;;6.00;79.20;;;;;;5025656;28;20066;-78
2021/03/30 05:57:26;;;;;;;44.28;26.50;;;5.90;79.10;;;;;;5025247;28;20472;-75
2021/03/30 06:00:01;;;;;;;44.60;25.25;;;6.00;79.20;;;;;;5021715;28;20046;-73
2021/03/30 06:02:41;;;;;;;42.85;25.70;;;6.00;79.20;;;;;;5024282;28;20038;-73
2021/03/30 06:05:08;;;;;;;45.92;26.08;;;6.00;79.20;;;;;;5026193;28;20056;-74
2021/03/30 06:07:37;;;;;;;42.35;26.10;;;6.10;79.30;;;;;;5025880;28;20067;-76
2021/03/30 06:10:09;;;;;;;39.72;26.27;;;6.10;79.20;;;;;;5023082;28;20540;-77
2021/03/30 06:12:35;;;;;;;48.25;28.27;;;6.10;79.10;;;;;;5027473;28;20435;-75
2021/03/30 06:15:03;;;;;;;45.40;28.40;;;6.30;79.20;;;;;;5022267;28;20029;-76
2021/03/30 06:17:48;;;;;;;40.00;25.70;;;6.40;79.20;;;;;;5026810;28;20053;-80
2021/03/30 06:20:24;;;;;;;41.88;26.17;;;6.40;79.00;;;;;;5030320;28;20380;-79
2021/03/30 06:22:55;;;;;;;41.60;26.55;;;6.50;78.70;;;;;;5021748;28;20030;-79
2021/03/30 06:25:56;;;;;;;40.47;26.08;;;6.60;78.50;;;;;;5028763;28;24350;-75
2021/03/30 06:28:28;;;;;;;50.63;29.98;;;6.60;78.40;;;;;;4984794;28;20094;-78
2021/03/30 06:31:13;;;;;;;46.67;28.77;;;6.70;78.80;;;;;;5020429;28;20033;-74
2021/03/30 06:33:50;;;;;;;44.85;27.02;;;6.80;79.00;;;;;;5026709;28;20045;-81
2021/03/30 06:36:18;;;;;;;48.30;27.60;;;7.00;79.20;;;;;;5023496;28;20029;-74
2021/03/30 06:39:01;;;;;;;43.42;27.05;;;7.10;79.10;;;;;;5030438;28;20033;-74
2021/03/30 06:41:31;;;;;;;41.67;25.27;;;7.10;79.00;;;;;;5027786;28;20033;-78
2021/03/30 06:46:51;;;;;;;49.40;29.30;;;7.40;78.80;;;;;;5028640;28;20048;-73
2021/03/30 06:49:18;;;;;;;47.17;28.35;;;7.60;78.80;;;;;;5037373;28;20041;-73
2021/03/30 06:51:43;;;;;;;47.42;27.40;;;7.70;78.60;;;;;;5027669;28;20489;-71
2021/03/30 06:54:10;;;;;;;48.15;27.85;;;7.90;78.30;;;;;;5022412;28;20026;-71
2021/03/30 06:56:53;;;;;;;50.55;27.65;;;8.10;78.00;;;;;;5026483;28;20049;-71
2021/03/30 06:59:21;;;;;;;50.17;29.17;;;8.20;77.70;;;;;;5022321;28;20033;-70
2021/03/30 07:01:55;;;;;;;53.53;28.70;;;8.40;77.40;;;;;;5024093;28;20037;-75
2021/03/30 07:04:22;;;;;;;50.80;28.33;;;8.60;76.90;;;;;;5028025;28;20041;-74
2021/03/30 07:06:53;;;;;;;59.85;30.02;;;8.80;76.60;;;;;;5007478;28;20574;-71
2021/03/30 07:09:23;;;;;;;55.80;29.60;;;9.00;76.20;;;;;;5018852;28;20087;-73
2021/03/30 07:11:49;;;;;;;52.25;29.42;;;9.20;75.50;;;;;;5027158;28;20037;-71
2021/03/30 07:14:15;;;;;;;47.47;28.70;;;9.40;74.90;;;;;;5026860;28;20460;-73
2021/03/30 07:16:54;;;;;;;49.55;30.13;;;9.60;74.70;;;;;;5023662;28;20045;-71
2021/03/30 07:19:23;;;;;;;48.60;27.95;;;9.70;74.20;;;;;;5029193;28;20056;-70
2021/03/30 07:22:09;;;;;;;55.58;32.28;;;9.90;73.80;;;;;;5030320;28;20041;-73
2021/03/30 07:24:53;;;;;;;54.47;29.65;;;10.10;73.30;;;;;;5012855;28;20105;-70
2021/03/30 07:27:29;;;;;;;53.83;29.80;;;10.30;72.90;;;;;;5004355;28;20352;-71
2021/03/30 07:29:57;;;;;;;56.35;31.23;;;10.50;71.90;;;;;;5009267;28;20072;-71
2021/03/30 07:32:40;;;;;;;51.20;29.42;;;10.60;71.70;;;;;;5035165;28;20164;-69
2021/03/30 07:35:12;;;;;;;55.53;30.15;;;10.80;71.60;;;;;;5006892;28;20034;-71
2021/03/30 07:38:02;;;;;;;51.50;29.33;;;11.00;70.20;;;;;;5006349;28;20040;-69
2021/03/30 07:40:27;;;;;;;52.25;28.83;;;11.20;70.60;;;;;;5028594;28;22041;-70
2021/03/30 07:42:53;;;;;;;50.92;29.20;;;11.50;69.20;;;;;;5028278;28;20037;-70
2021/03/30 07:45:26;;;;;;;56.47;31.80;;;11.70;68.90;;;;;;5027744;28;20046;-74
2021/03/30 07:47:52;;;;;;;55.60;29.88;;;12.00;68.20;;;;;;5024522;28;20053;-71
2021/03/30 07:50:22;;;;;;;49.25;29.63;;;12.20;67.90;;;;;;5026476;28;20072;-72
2021/03/30 07:52:52;;;;;;;49.60;30.42;;;12.50;67.70;;;;;;5027088;28;20041;-71
2021/03/30 07:55:27;;;;;;;56.60;31.65;;;12.80;66.60;;;;;;5031074;28;20040;-73
2021/03/30 07:58:10;;;;;;;49.28;29.58;;;13.00;65.00;;;;;;5028895;28;20045;-73
2021/03/30 08:00:38;;;;;;;50.55;30.27;;;13.30;64.70;;;;;;5024627;28;20049;-71
2021/03/30 08:03:26;;;;;;;52.40;29.73;;;13.50;64.30;;;;;;5021141;28;20044;-72
2021/03/30 08:06:06;;;;;;;52.90;29.98;;;13.70;62.30;;;;;;5027524;28;20048;-71
2021/03/30 08:09:06;;;;;;;57.63;31.27;;;14.00;62.70;;;;;;5026830;28;20057;-70
2021/03/30 08:11:38;;;;;;;56.05;33.60;;;14.30;61.50;;;;;;5022022;28;20041;-74
2021/03/30 08:14:09;;;;;;;57.17;31.67;;;14.60;61.10;;;;;;5028108;28;20776;-70
2021/03/30 08:16:36;;;;;;;51.03;30.65;;;14.80;61.60;;;;;;5026866;28;20052;-70
2021/03/30 08:19:07;;;;;;;52.00;30.80;;;15.00;61.00;;;;;;5030381;28;20033;-73
2021/03/30 08:21:52;;;;;;;51.50;28.92;;;15.20;60.90;;;;;;5033596;28;20028;-71
2021/03/30 08:24:19;;;;;;;59.15;32.60;;;15.40;60.00;;;;;;5033579;28;20068;-73
2021/03/30 08:26:46;;;;;;;59.80;31.13;;;15.50;57.50;;;;;;5031636;28;20037;-71
2021/03/30 08:29:23;;;;;;;56.92;32.05;;;15.50;58.50;;;;;;5028796;28;20485;-71
2021/03/30 08:31:51;;;;;;;57.88;30.25;;;15.70;58.50;;;;;;5021291;28;22363;-69
2021/03/30 08:34:19;;;;;;;59.83;31.90;;;15.90;57.80;;;;;;5025509;28;20053;-72
2021/03/30 08:36:44;;;;;;;55.85;30.50;;;16.10;58.90;;;;;;5036723;28;20366;-71
2021/03/30 08:39:29;;;;;;;56.22;32.70;;;16.30;57.90;;;;;;5027513;28;20504;-70
2021/03/30 08:42:08;;;;;;;54.75;31.13;;;16.40;57.60;;;;;;5024945;28;20036;-71
2021/03/30 08:44:39;;;;;;;56.88;31.35;;;16.60;58.20;;;;;;5024854;28;20033;-70
2021/03/30 08:47:06;;;;;;;52.80;29.10;;;16.80;57.60;;;;;;5024872;28;20033;-70
2021/03/30 08:49:43;;;;;;;47.28;28.65;;;17.10;57.00;;;;;;5027372;28;20469;-71
2021/03/30 08:52:15;;;;;;;54.42;30.80;;;17.30;57.00;;;;;;5040358;28;20319;-70
2021/03/30 08:54:48;;;;;;;48.20;30.17;;;17.50;56.00;;;;;;5026935;28;20030;-71
2021/03/30 08:57:24;;;;;;;52.47;30.02;;;17.70;56.50;;;;;;5019368;28;20090;-70
2021/03/30 08:59:51;;;;;;;46.10;28.50;;;17.70;54.10;;;;;;5021213;28;20049;-72
2021/03/30 09:02:23;;;;;;;56.15;30.80;;;17.80;55.40;;;;;;5021744;28;20040;-72
2021/03/30 09:04:49;;;;;;;51.20;31.00;;;18.00;55.50;;;;;;5031333;28;20076;-71
2021/03/30 09:07:15;;;;;;;48.90;28.75;;;18.20;55.30;;;;;;5024108;28;20140;-70
2021/03/30 09:09:41;;;;;;;49.60;28.60;;;18.30;54.80;;;;;;5028188;28;20067;-71
2021/03/30 09:12:20;;;;;;;58.28;29.58;;;18.40;54.80;;;;;;5028730;28;20037;-73
2021/03/30 09:14:59;;;;;;;49.70;27.83;;;18.60;54.40;;;;;;5027547;28;20144;-71
2021/03/30 09:17:25;;;;;;;46.85;27.75;;;18.70;52.40;;;;;;5022539;28;20974;-72
2021/03/30 09:19:51;;;;;;;45.03;25.40;;;18.90;52.40;;;;;;5027461;28;20388;-72
2021/03/30 09:22:28;;;;;;;46.47;27.73;;;18.90;51.40;;;;;;5028964;28;20041;-71
2021/03/30 09:25:00;;;;;;;47.47;26.90;;;19.00;50.90;;;;;;5024999;28;20044;-71
2021/03/30 09:27:28;;;;;;;38.97;22.23;;;19.10;49.40;;;;;;5028333;28;20133;-71
2021/03/30 09:29:55;;;;;;;40.40;20.75;;;19.20;45.00;;;;;;5023982;28;20132;-70
2021/03/30 09:32:22;;;;;;;40.30;21.80;;;19.30;41.00;;;;;;5022687;28;20048;-70
2021/03/30 09:34:48;;;;;;;37.85;22.15;;;19.40;41.30;;;;;;5019557;28;20079;-71
2021/03/30 09:37:14;;;;;;;36.30;20.65;;;19.40;42.40;;;;;;5018891;28;20176;-72
2021/03/30 09:39:41;;;;;;;36.33;19.35;;;19.60;43.00;;;;;;5018090;28;20036;-73
2021/03/30 09:42:07;;;;;;;33.25;19.20;;;19.70;42.70;;;;;;5026108;28;20075;-70
2021/03/30 09:44:43;;;;;;;33.53;17.98;;;19.80;42.10;;;;;;5021806;28;20453;-70
2021/03/30 09:47:11;;;;;;;32.60;19.77;;;20.00;42.70;;;;;;5018375;28;20049;-71
2021/03/30 09:49:37;;;;;;;35.28;20.95;;;20.10;41.70;;;;;;5022165;28;20044;-72
2021/03/30 09:52:04;;;;;;;31.02;19.35;;;20.30;40.80;;;;;;5021385;28;20034;-71
2021/03/30 09:54:32;;;;;;;34.22;19.02;;;20.40;41.60;;;;;;5019237;28;20056;-73
2021/03/30 09:56:57;;;;;;;33.85;18.90;;;20.60;41.30;;;;;;5017898;28;20048;-73
2021/03/30 09:59:23;;;;;;;29.02;17.88;;;20.70;41.50;;;;;;5020503;28;20050;-72
2021/03/30 10:01:50;;;;;;;31.30;18.30;;;20.70;40.90;;;;;;5017588;28;20133;-71
2021/03/30 10:04:16;;;;;;;28.95;17.92;;;20.90;40.90;;;;;;5019940;28;20041;-72
2021/03/30 10:06:41;;;;;;;27.52;15.98;;;21.00;41.50;;;;;;5027175;28;20045;-72
2021/03/30 10:09:07;;;;;;;29.77;17.38;;;21.10;38.70;;;;;;5027599;28;20465;-70
2021/03/30 10:11:34;;;;;;;28.35;16.40;;;21.20;39.80;;;;;;5027466;28;20033;-72
2021/03/30 10:14:25;;;;;;;28.95;17.42;;;21.30;38.00;;;;;;5025050;28;20043;-69
2021/03/30 10:16:56;;;;;;;28.60;16.35;;;21.50;39.50;;;;;;5026865;28;20625;-73
2021/03/30 10:19:22;;;;;;;28.52;15.85;;;21.70;39.30;;;;;;5032561;28;20126;-72
2021/03/30 10:21:54;;;;;;;27.50;15.70;;;21.70;38.70;;;;;;5028659;28;20042;-71
2021/03/30 10:24:20;;;;;;;29.17;15.80;;;21.70;37.40;;;;;;5026757;28;20041;-69
2021/03/30 10:27:05;;;;;;;27.58;16.00;;;21.70;38.10;;;;;;5020201;28;20049;-70
2021/03/30 10:29:41;;;;;;;26.25;13.75;;;21.50;37.20;;;;;;5023334;28;20030;-70
2021/03/30 10:32:17;;;;;;;24.27;13.82;;;21.50;38.10;;;;;;5025354;28;20047;-70
2021/03/30 10:34:43;;;;;;;25.75;13.57;;;21.70;36.50;;;;;;5025719;28;20037;-68
2021/03/30 10:37:12;;;;;;;20.27;11.43;;;21.80;37.10;;;;;;5017190;28;20034;-71
2021/03/30 10:39:42;;;;;;;20.88;11.65;;;22.10;34.80;;;;;;5026532;28;20037;-72
2021/03/30 10:42:13;;;;;;;19.17;10.32;;;22.20;34.60;;;;;;5020631;28;20038;-71
2021/03/30 10:44:57;;;;;;;18.80;11.50;;;22.30;33.60;;;;;;5024989;28;20896;-71
2021/03/30 10:47:27;;;;;;;17.10;9.90;;;22.30;33.80;;;;;;5030575;28;20041;-72
2021/03/30 10:49:56;;;;;;;18.50;11.10;;;22.40;34.20;;;;;;5012210;28;20336;-74
2021/03/30 10:52:26;;;;;;;18.45;11.00;;;22.50;33.20;;;;;;5015170;28;20116;-77
2021/03/30 10:54:55;;;;;;;20.05;11.90;;;22.60;33.10;;;;;;5016971;28;20048;-72
2021/03/30 10:57:24;;;;;;;19.95;10.98;;;22.70;34.00;;;;;;5017598;28;20064;-74
2021/03/30 10:59:50;;;;;;;19.20;11.70;;;22.90;34.00;;;;;;5020398;28;20052;-77
2021/03/30 11:02:16;;;;;;;18.20;10.68;;;23.10;33.60;;;;;;5018761;28;20029;-71
2021/03/30 11:04:42;;;;;;;17.23;11.52;;;23.00;33.10;;;;;;5019103;28;20076;-71
2021/03/30 11:07:09;;;;;;;22.08;12.32;;;22.80;32.90;;;;;;5019507;28;20611;-72
2021/03/30 11:09:37;;;;;;;19.75;12.27;;;22.80;33.70;;;;;;5015182;28;20385;-72
2021/03/30 11:12:03;;;;;;;21.02;13.00;;;22.90;32.90;;;;;;5019983;28;20038;-75
2021/03/30 11:14:28;;;;;;;22.25;12.88;;;22.90;32.80;;;;;;5016937;28;20039;-73
2021/03/30 11:16:54;;;;;;;18.58;12.15;;;22.80;32.40;;;;;;5015467;28;20260;-75
2021/03/30 11:19:20;;;;;;;19.38;11.57;;;22.80;32.70;;;;;;5021384;28;20033;-77
2021/03/30 11:21:46;;;;;;;21.30;12.10;;;22.90;33.50;;;;;;5020390;28;20041;-75
2021/03/30 11:24:19;;;;;;;17.73;10.55;;;22.90;33.30;;;;;;5015320;28;20116;-75
2021/03/30 11:26:50;;;;;;;21.88;12.30;;;23.00;33.10;;;;;;5021702;28;20041;-79
2021/03/30 11:29:36;;;;;;;17.73;10.52;;;23.10;32.80;;;;;;5013141;28;20042;-77
2021/03/30 11:34:47;;;;;;;20.15;10.13;;;23.10;31.70;;;;;;5017154;28;20056;-80
2021/03/30 11:37:21;;;;;;;18.35;10.55;;;23.00;31.70;;;;;;5016502;28;20143;-72
2021/03/30 11:39:47;;;;;;;;;;;22.90;30.70;;;;;;5017926;28;20121;-72
2021/03/30 11:42:12;;;;;;;17.33;9.73;;;23.00;31.20;;;;;;5019501;28;20003;-78
2021/03/30 11:44:38;;;;;;;17.30;9.43;;;22.90;31.40;;;;;;5018406;28;20124;-76
2021/03/30 11:47:04;;;;;;;18.73;10.35;;;22.60;31.40;;;;;;5024648;28;20036;-72
2021/03/30 11:49:34;;;;;;;18.67;10.13;;;22.80;32.70;;;;;;5019737;28;20653;-77
2021/03/30 11:52:00;;;;;;;15.48;8.68;;;23.10;32.10;;;;;;5021843;28;20033;-75
2021/03/30 11:54:26;;;;;;;17.35;9.60;;;23.30;31.80;;;;;;5023096;28;20961;-73
2021/03/30 11:56:52;;;;;;;16.70;9.10;;;23.60;31.60;;;;;;5024874;28;20061;-73
2021/03/30 11:59:18;;;;;;;17.33;9.75;;;23.50;31.70;;;;;;5025909;28;20048;-74
2021/03/30 12:01:44;;;;;;;15.63;9.50;;;23.40;31.70;;;;;;5027736;28;20072;-73
2021/03/30 12:04:10;;;;;;;17.35;9.32;;;23.30;32.50;;;;;;5020696;28;20125;-74
2021/03/30 12:06:36;;;;;;;16.30;9.60;;;23.20;32.60;;;;;;5022449;28;20120;-74
2021/03/30 12:09:02;;;;;;;16.52;9.07;;;23.40;32.40;;;;;;5021382;28;20121;-76
2021/03/30 12:11:29;;;;;;;16.10;9.05;;;23.40;31.60;;;;;;5026914;28;20644;-76
2021/03/30 12:13:56;;;;;;;16.08;8.48;;;23.30;32.00;;;;;;5025175;28;20076;-73
2021/03/30 12:16:21;;;;;;;14.10;7.43;;;23.40;31.10;;;;;;5022140;28;20469;-73
2021/03/30 12:18:47;;;;;;;15.15;8.43;;;23.30;31.40;;;;;;5033270;28;20048;-74
2021/03/30 12:21:13;;;;;;;16.02;8.05;;;23.20;30.90;;;;;;5002257;28;20064;-77
2021/03/30 12:23:39;;;;;;;14.85;8.45;;;23.10;30.70;;;;;;4997341;28;20068;-77
2021/03/30 12:26:05;;;;;;;16.48;8.27;;;23.20;30.30;;;;;;5011066;28;20042;-73
2021/03/30 12:28:30;;;;;;;17.17;7.75;;;23.30;30.70;;;;;;5020327;28;20056;-73
2021/03/30 12:30:56;;;;;;;15.73;8.02;;;23.40;31.40;;;;;;5022017;28;20548;-73
2021/03/30 12:33:22;;;;;;;14.70;7.40;;;23.60;31.80;;;;;;5015084;28;20044;-77
2021/03/30 12:35:47;;;;;;;15.73;6.03;;;23.80;30.10;;;;;;5016285;28;20129;-76
2021/03/30 12:38:13;;;;;;;15.98;7.55;;;23.90;29.00;;;;;;5015294;28;20365;-76
2021/03/30 12:40:39;;;;;;;15.15;8.00;;;24.10;28.80;;;;;;5013288;28;20029;-75
2021/03/30 12:43:05;;;;;;;11.20;6.15;;;24.10;30.80;;;;;;5022436;28;20045;-78
2021/03/30 12:45:34;;;;;;;13.70;7.30;;;24.00;28.90;;;;;;5022905;28;20460;-78
2021/03/30 12:48:01;;;;;;;11.82;6.38;;;24.00;29.20;;;;;;5018207;28;20037;-75
2021/03/30 12:50:28;;;;;;;10.80;6.25;;;24.00;28.00;;;;;;5028386;28;20179;-73